x

Stonewall Bank - 20nm West Of Newport, Or (46050) Wave Buoy

7:50pm - Sat 25th Feb 2017 All times are PST. -8 hours from GMT.

  • Sig Wave height 6.6ft
  • Swell Direction
  • Peak Period 13s
  • Average Period 9s
  • Wind
    2mph, 4mph gusts
  • Sea Temp 51°f
  • Air Temp 42°f
  • Sea Pressure 1019.5mb
  • Stonewall Bank - 20nm West Of Newport, Or
  • Stonewall Bank - 20nm West Of Newport, Or

More Historic Weather Station data

Upgrade to MSW Pro to gain access to the past 30 days of data for over 8000 Wavebouys and Weather Stations around the globe.

Join Pro

Comparision Forecast

View Surf forecast
   
Sat 02/25 7:50pm 6.5ft 13s 9s 2 4 mph 1019.5mb 51f 42f
6:50pm 6ft 13s 9s 11 20 mph 1020.2mb 51f 45f
5:50pm 6.5ft 13s 9s 7 9 mph 1020.8mb 52f 45f
4:50pm 6ft 13s 9s 7 11 mph 1021.7mb 51f 47f
3:50pm 5.5ft 11s 9s 4 7 mph 1022.2mb 51f 49f
2:50pm 6ft 12s 9s 4 7 mph 1022.4mb 52f 47f
1:50pm 5.5ft 14s 9s 2 4 mph 1022.7mb 51f 46f
12:50pm 6ft 14s 9s 7 9 mph 1023.7mb 51f 46f
11:50am 6ft 14s 9s 4
mph
1024.3mb 51f 46f
10:50am 6ft 15s 9s 4 7 mph 1024.1mb 51f 45f
9:50am 5.5ft 15s 8s 2 4 mph 1024.1mb 51f 46f
8:50am 5ft 14s 7s 4 7 mph 1023.9mb 51f 47f
7:50am 5ft 15s 7s 2 4 mph 1023.8mb 51f 46f
6:50am 5ft 14s 7s 9 11 mph 1023.4mb 51f 44f
5:50am 5.5ft 15s 8s 9 13 mph 1023mb 51f 43f
4:50am 6.5ft 14s 8s 9 11 mph 1022.6mb 51f 43f
3:50am 6.5ft 14s 8s 11 13 mph 1022.6mb 51f 43f
2:50am 7ft 14s 8s 11 13 mph 1022.3mb 51f 43f
1:50am 7ft 14s 8s 9 13 mph 1022mb 51f 43f
12:50am 6.5ft 13s 7s 9 13 mph 1021.9mb 51f 44f
Fri 02/24 11:50pm 7ft 14s 7s 16 20 mph 1021.1mb 51f 44f
10:50pm 7ft 14s 7s 18 22 mph 1020.8mb 51f 44f
9:50pm 7.5ft 14s 7s 16 18 mph 1020.6mb 51f 43f
8:50pm 7ft 14s 6s 18 22 mph 1020.1mb 51f 43f
7:50pm 7ft 14s 6s 18 25 mph 1019.4mb 51f 44f
6:50pm 7ft 15s 6s 20 25 mph 1019.1mb 51f 43f
5:50pm 7ft 16s 6s 22 27 mph 1018.6mb 51f 43f
4:50pm 6ft 15s 6s 22 27 mph 1018.6mb 51f 41f
3:50pm 6.5ft 16s 6s 18 22 mph 1018.8mb 51f 40f
2:50pm 6.5ft 16s 6s 18 22 mph 1018.6mb 51f 41f
1:50pm 7ft 16s 6s 18 22 mph 1018.8mb 51f 41f
12:50pm 7ft 16s 6s 18 22 mph 1019.3mb 51f 43f
11:50am 6.5ft 16s 7s 22 25 mph 1019.4mb 51f 43f
10:50am 6.5ft 16s 7s 7 9 mph 1019.8mb 51f 43f
9:50am 6ft 16s 7s 11 13 mph 1019.7mb 51f 43f
8:50am 6ft 16s 7s 11 13 mph 1019.7mb 51f 43f
7:50am 6.5ft 15s 7s 9 11 mph 1020.1mb 51f 42f
6:50am 6.5ft 10s 8s 18 22 mph 1020.3mb 51f 42f
5:50am 6.5ft 16s 8s 13 16 mph 1020.7mb 51f 42f
4:50am 6ft 10s 7s 9 11 mph 1021.4mb 51f 41f
3:50am 6ft 16s 7s 16 20 mph 1021.8mb 51f 42f
2:50am 6ft 9s 7s 11 13 mph 1022.4mb 51f 42f
1:50am 6ft 9s 7s 7 9 mph 1022.9mb 51f 41f
12:50am 6ft 10s 7s 13 18 mph 1023.4mb 51f 40f
Thu 02/23 11:50pm 6ft 10s 7s 9 16 mph 1023.7mb 51f 43f
10:50pm 6ft 10s 7s 9 13 mph 1023.7mb 51f 44f
9:50pm 6ft 8s 7s 7 11 mph 1024mb 51f 43f
8:50pm 7ft 10s 7s 4 9 mph 1024mb 51f 43f
7:50pm 7ft 10s 7s 7 11 mph 1024.2mb 51f 44f
6:50pm 6.5ft 9s 7s 4 7 mph 1024.5mb 51f 44f
5:50pm 6ft 11s 7s 7 9 mph 1024.5mb 51f 44f
4:50pm 6ft 11s 7s 7 9 mph 1024.6mb 51f 44f
3:50pm 6ft 11s 7s 7 11 mph 1024.9mb 51f 45f
2:50pm 6ft 8s 7s 4 7 mph 1025.4mb 51f 46f
1:50pm 5.5ft 8s 7s 2 4 mph 1025.5mb 51f 43f
12:50pm 5.5ft 11s 7s 11 13 mph 1025.3mb 51f 44f
11:50am 5ft 11s 7s 4 7 mph 1025.8mb 51f 45f
10:50am 6ft 8s 7s 4
mph
1025.6mb 51f 45f
9:50am 5.5ft 8s 7s 2 4 mph 1025.4mb 51f 39f
8:50am 5.5ft 8s 7s 4
mph
1025mb 51f 47f
7:50am 5.5ft 11s 7s 4 7 mph 1024.6mb 51f 45f
6:50am 5.5ft 11s 7s 2 4 mph 1024.2mb 51f 43f
5:50am 5.5ft 7s 7s 4 9 mph 1024.3mb 51f 43f
4:50am 5ft 10s 7s 4 7 mph 1024.1mb 51f 43f
3:50am 5ft 11s 7s 7 11 mph 1023.8mb 51f 42f
2:50am 6ft 12s 7s 11 13 mph 1024.1mb 51f 39f
1:50am 6ft 13s 6s 16 20 mph 1023.9mb 51f 42f
12:50am 6ft 12s 7s 16 18 mph 1023.7mb 51f 44f
Wed 02/22 11:50pm 6ft 11s 7s 9 18 mph 1023.7mb 51f 43f
10:50pm 6.5ft 13s 7s 20 25 mph 1023.2mb 51f 43f
9:50pm 6.5ft 11s 7s 13 20 mph 1022.9mb 51f 44f
8:50pm 7ft 12s 7s 11 16 mph 1022.9mb 51f 44f
7:50pm 7ft 11s 7s 18 22 mph 1022.5mb 51f 44f
6:50pm 6ft 13s 7s 9 11 mph 1022.9mb 51f 43f
5:50pm 6.5ft 13s 7s 4 11 mph 1023.2mb 51f 38f
4:50pm 7ft 13s 8s 13 18 mph 1022.8mb 51f 41f
3:50pm 6.5ft 11s 8s 13 18 mph 1022.7mb 51f 46f
2:50pm 7ft 11s 8s 11 13 mph 1022.8mb 51f 46f
1:50pm 7ft 13s 7s 13 16 mph 1022.8mb 51f 46f
12:50pm 6.5ft 13s 7s 18 27 mph 1023.1mb 51f 45f
11:50am 6.5ft 14s 8s 16 20 mph 1023.3mb 51f 48f
10:50am 7ft 14s 8s 9 11 mph 1023.4mb 51f 48f
9:50am 7.5ft 14s 8s 4 7 mph 1023.2mb 51f 46f
8:50am 8ft 14s 8s 13 20 mph 1023mb 51f 46f
7:50am 7.5ft 14s 8s 9 13 mph 1022.9mb 51f 46f
6:50am 8ft 14s 8s 11 13 mph 1022.7mb 51f 46f
5:50am 8ft 14s 8s 11 20 mph 1022.8mb 51f 46f